Latest Weather Observations for Mardie

IDW60801

Issued at 8:05 pm WST Monday 28 July 2014 (issued every 30 minutes, with the page automatically refreshed every 10 minutes)

About weather observations | Map of weather stations | Latest weather observations for WA | Other Formats
Station Details ID: 005008 Name: MARDIE Lat: -21.19 Lon: 115.98 Height: 11.0 m
Data from the previous 72 hours. | See also: Recent months at Mardie
Date/Time
WST
Temp
°C
App
Temp
°C
Dew
Point
Rel
Hum
%
Delta-T
°C
Wind Press
QNH
hPa
Press
MSL
hPa
Rain
since 9 am
mm
Dir
 
Spd
km/h
Gust
km/h
Spd
kts
Gust
kts
28/08:00pm 21.5 19.1 7.0 39 7.4 WSW 9 11 5 6 1018.2 1018.1 0.0
28/07:30pm 21.9 19.5 7.0 38 7.6 WSW 9 11 5 6 1018.0 - 0.0
28/07:00pm 22.9 20.2 5.8 33 8.6 W 9 11 5 6 1017.7 1017.6 0.0
28/06:30pm 24.2 21.1 5.5 30 9.5 W 11 13 6 7 1017.4 - 0.0
28/06:00pm 25.3 20.9 5.0 27 10.2 W 17 22 9 12 1017.1 1017.0 0.0
28/05:30pm 26.9 22.1 4.6 24 11.3 W 19 26 10 14 1016.8 - 0.0
28/05:00pm 27.7 22.6 4.1 22 11.9 W 20 28 11 15 1016.5 1016.5 0.0
28/04:30pm 28.5 23.3 3.4 20 12.6 WNW 20 26 11 14 1016.3 - 0.0
28/04:00pm 29.0 23.9 3.1 19 12.9 WNW 19 24 10 13 1016.1 1016.1 0.0
28/03:30pm 29.9 25.8 2.2 17 13.7 W 13 19 7 10 1016.1 - 0.0
28/03:00pm 30.1 26.4 2.4 17 13.8 SW 11 17 6 9 1016.2 1016.2 0.0
28/02:30pm 30.2 25.8 2.5 17 13.8 W 15 22 8 12 1016.8 - 0.0
28/02:00pm 29.8 24.7 2.9 18 13.5 WNW 19 24 10 13 1017.1 1017.0 0.0
28/01:30pm 29.8 26.4 2.1 17 13.7 SW 9 17 5 9 1017.5 - 0.0
28/01:00pm 30.1 26.8 2.4 17 13.8 WSW 9 19 5 10 1017.8 1017.7 0.0
28/12:30pm 29.8 26.9 1.3 16 13.9 E 6 11 3 6 1018.4 - 0.0
28/12:00pm 29.1 26.2 2.4 18 13.2 S 7 17 4 9 1019.0 1018.9 0.0
28/11:30am 28.4 25.5 2.6 19 12.7 SSW 7 20 4 11 1019.4 - 0.0
28/11:00am 28.4 25.1 2.6 19 12.7 S 9 15 5 8 1019.9 1019.8 0.0
28/10:30am 27.5 24.1 1.8 19 12.4 SE 9 17 5 9 1020.3 - 0.0
28/10:00am 25.0 22.2 3.0 24 10.7 SE 7 13 4 7 1020.7 1020.6 0.0
28/09:30am 22.9 20.7 3.4 28 9.4 S 4 9 2 5 1020.8 - 0.0
28/09:00am 20.1 18.9 4.6 36 7.5 CALM 0 2 0 1 1020.7 1020.6 0.0
28/08:30am 17.8 16.0 5.4 44 6.0 W 4 9 2 5 1020.4 - 0.0
28/08:00am 15.5 13.7 5.4 51 4.8 SSW 4 7 2 4 1020.2 1020.1 0.0
28/07:30am 12.8 10.4 5.2 60 3.5 WSW 7 9 4 5 1020.1 - 0.0
28/07:00am 11.6 10.1 5.0 64 3.0 NW 2 6 1 3 1019.8 1019.7 0.0
28/06:30am 11.5 9.2 4.9 64 3.0 NW 6 9 3 5 1019.5 - 0.0
28/06:00am 11.5 9.2 4.7 63 3.1 NW 6 9 3 5 1019.4 1019.3 0.0
28/05:30am 12.2 11.1 5.1 62 3.3 CALM 0 4 0 2 1019.3 - 0.0
28/05:00am 13.0 10.3 5.7 61 3.4 NNW 9 17 5 9 1019.4 1019.3 0.0
28/04:30am 13.9 10.7 5.3 56 4.0 S 11 13 6 7 1019.0 - 0.0
28/04:00am 13.6 10.4 5.3 57 3.9 SSE 11 15 6 8 1019.1 1019.0 0.0
28/03:30am 13.9 11.8 5.8 58 3.8 NE 6 11 3 6 1019.0 - 0.0
28/03:00am 14.0 11.8 5.4 56 4.0 SE 6 7 3 4 1018.8 1018.7 0.0
28/02:30am 15.0 11.2 5.8 54 4.4 SSE 15 19 8 10 1018.7 - 0.0
28/02:00am 14.9 12.4 6.5 57 4.1 S 9 11 5 6 1019.0 1018.9 0.0
28/01:30am 14.5 12.3 6.3 58 3.9 S 7 9 4 5 1019.2 - 0.0
28/01:00am 15.5 13.0 6.5 55 4.4 S 9 15 5 8 1019.6 1019.5 0.0
28/12:30am 16.4 14.1 7.3 55 4.5 SW 9 17 5 9 1019.7 - 0.0
28/12:00am 15.9 13.0 6.3 53 4.7 S 11 13 6 7 1019.9 1019.8 0.0
 
Date/Time
WST
Temp
°C
App
Temp
°C
Dew
Point
Rel
Hum
%
Delta-T
°C
Wind Press
QNH
hPa
Press
MSL
hPa
Rain
since 9 am
mm
Dir
 
Spd
km/h
Gust
km/h
Spd
kts
Gust
kts
27/11:30pm 15.7 13.1 5.9 52 4.7 S 9 11 5 6 1020.1 - 0.0
27/11:00pm 16.0 13.8 6.2 52 4.7 W 7 13 4 7 1020.2 1020.1 0.0
27/10:30pm 16.5 14.2 5.5 48 5.3 SSE 7 9 4 5 1020.1 - 0.0
27/10:00pm 17.1 15.0 5.7 47 5.5 WSW 6 7 3 4 1020.3 1020.2 0.0
27/09:30pm 18.1 16.8 6.0 45 5.9 WSW 2 4 1 2 1020.2 - 0.0
27/09:00pm 18.4 16.3 5.6 43 6.2 WSW 6 6 3 3 1020.1 1020.0 0.0
27/08:30pm 19.4 17.2 6.2 42 6.6 WSW 7 7 4 4 1020.1 - 0.0
27/08:00pm 19.8 17.5 5.8 40 6.9 W 7 7 4 4 1020.0 1019.9 0.0
27/07:30pm 20.3 17.7 5.9 39 7.2 W 9 11 5 6 1019.7 - 0.0
27/07:00pm 21.3 19.0 5.6 36 7.8 W 7 7 4 4 1019.4 1019.3 0.0
27/06:30pm 22.3 20.3 6.1 35 8.2 W 6 7 3 4 1019.1 - 0.0
27/06:00pm 24.2 22.5 6.0 31 9.3 W 4 6 2 3 1018.8 1018.7 0.0
27/05:30pm 25.6 23.0 6.3 29 10.0 W 9 13 5 7 1018.7 - 0.0
27/05:00pm 26.4 23.8 5.9 27 10.6 WNW 9 13 5 7 1018.5 1018.4 0.0
27/04:30pm 27.1 24.4 5.4 25 11.2 WNW 9 17 5 9 1018.3 - 0.0
27/04:00pm 27.3 24.2 5.6 25 11.2 WNW 11 17 6 9 1018.2 1018.1 0.0
27/03:30pm 27.0 23.1 5.3 25 11.1 NW 15 20 8 11 1018.1 - 0.0
27/03:00pm 27.6 24.0 5.2 24 11.5 NW 13 20 7 11 1018.0 1017.9 0.0
27/02:30pm 26.8 23.7 5.7 26 10.9 NW 11 20 6 11 1018.1 - 0.0
27/02:00pm 27.2 23.0 5.5 25 11.2 NW 17 26 9 14 1018.3 1018.2 0.0
27/01:30pm 28.0 24.7 4.3 22 12.0 NNW 11 17 6 9 1018.5 - 0.0
27/01:00pm 27.5 24.8 3.9 22 11.8 N 7 17 4 9 1018.7 1018.6 0.0
27/12:30pm 27.0 23.4 2.8 21 11.9 NNW 11 20 6 11 1019.3 - 0.0
27/12:00pm 26.8 23.8 0.5 18 12.3 N 6 11 3 6 1019.9 1019.8 0.0
27/11:30am 26.3 23.1 0.9 19 12.0 NE 7 11 4 6 1020.2 - 0.0
27/11:00am 26.0 21.9 -0.1 18 12.0 NE 11 19 6 10 1020.6 1020.5 0.0
27/10:30am 25.3 21.6 0.0 19 11.7 ENE 9 15 5 8 1021.2 - 0.0
27/10:00am 23.3 19.5 1.6 24 10.1 ESE 11 19 6 10 1021.2 1021.1 0.0
27/09:30am 21.5 17.7 1.7 27 9.2 ESE 11 15 6 8 1021.5 - 0.0
27/09:00am 19.9 16.5 1.8 30 8.2 SE 9 13 5 7 1021.5 1021.4 0.0
27/08:30am 17.5 14.5 2.3 36 6.9 ESE 7 9 4 5 1021.4 - 0.0
27/08:00am 15.0 12.0 2.2 42 5.6 E 7 9 4 5 1021.2 1021.1 0.0
27/07:30am 11.8 8.5 2.3 52 4.1 E 9 11 5 6 1020.9 - 0.0
27/07:00am 9.2 5.7 1.4 58 3.2 E 9 11 5 6 1020.6 1020.5 0.0
27/06:30am 9.4 6.3 1.6 58 3.2 E 7 9 4 5 1020.5 - 0.0
27/06:00am 9.9 6.4 1.3 55 3.5 ESE 9 9 5 5 1020.4 1020.3 0.0
27/05:30am 9.7 6.7 1.1 55 3.5 ESE 6 7 3 4 1020.4 - 0.0
27/05:00am 10.2 7.1 1.6 55 3.6 ESE 7 9 4 5 1020.3 1020.2 0.0
27/04:30am 10.3 7.3 1.7 55 3.6 ESE 7 7 4 4 1020.1 - 0.0
27/04:00am 10.0 6.5 1.4 55 3.6 ESE 9 11 5 6 1020.0 1019.9 0.0
27/03:30am 10.5 7.5 1.9 55 3.6 SE 7 11 4 6 1020.0 - 0.0
27/03:00am 11.0 8.0 2.3 55 3.7 SSE 7 9 4 5 1020.0 1019.9 0.0
27/02:30am 12.1 8.2 3.3 55 3.9 S 13 15 7 8 1020.0 - 0.0
27/02:00am 12.4 9.0 4.1 57 3.7 S 11 15 6 8 1020.2 1020.1 0.0
27/01:30am 11.8 8.8 4.1 59 3.5 S 9 13 5 7 1020.4 - 0.0
27/01:00am 11.6 8.9 3.6 58 3.5 S 7 9 4 5 1020.5 1020.4 0.0
27/12:30am 11.2 8.0 2.8 56 3.6 SSE 9 11 5 6 1020.7 - 0.0
27/12:00am 11.5 8.3 2.8 55 3.8 SSE 9 11 5 6 1020.9 1020.8 0.0
 
Date/Time
WST
Temp
°C
App
Temp
°C
Dew
Point
Rel
Hum
%
Delta-T
°C
Wind Press
QNH
hPa
Press
MSL
hPa
Rain
since 9 am
mm
Dir
 
Spd
km/h
Gust
km/h
Spd
kts
Gust
kts
26/11:30pm 11.8 8.6 2.8 54 3.9 SSE 9 11 5 6 1020.9 - 0.0
26/11:00pm 12.6 9.8 3.3 53 4.1 S 7 7 4 4 1020.9 1020.8 0.0
26/10:30pm 13.3 10.6 3.7 52 4.3 S 7 9 4 5 1021.0 - 0.0
26/10:00pm 14.6 11.7 4.9 52 4.5 S 9 13 5 7 1020.9 1020.8 0.0
26/09:30pm 13.5 10.6 4.4 54 4.2 S 9 11 5 6 1020.8 - 0.0
26/09:00pm 14.3 11.5 5.1 54 4.3 SW 9 9 5 5 1020.7 1020.6 0.0
26/08:30pm 15.4 12.9 6.7 56 4.2 NW 9 9 5 5 1020.5 - 0.0
26/08:00pm 16.0 14.3 7.5 57 4.2 NW 6 7 3 4 1020.4 1020.3 0.0
26/07:30pm 16.9 15.2 7.5 54 4.7 NW 6 7 3 4 1020.3 - 0.0
26/07:00pm 17.9 16.7 7.9 52 5.1 NW 4 6 2 3 1020.1 1020.0 0.0
26/06:30pm 19.2 17.6 8.2 49 5.7 NW 6 7 3 4 1019.9 - 0.0
26/06:00pm 20.7 18.4 5.9 38 7.4 NW 7 7 4 4 1019.8 1019.7 0.0
26/05:30pm 22.6 20.0 4.2 30 9.0 NNW 7 9 4 5 1019.7 - 0.0
26/05:00pm 23.2 19.8 4.2 29 9.3 N 11 17 6 9 1019.5 1019.4 0.0
26/04:30pm 23.7 20.4 4.6 29 9.5 NNW 11 17 6 9 1019.4 - 0.0
26/04:00pm 23.6 20.0 5.0 30 9.3 NNW 13 20 7 11 1019.4 1019.3 0.0
26/03:30pm 23.9 19.6 5.3 30 9.4 WNW 17 24 9 13 1019.3 - 0.0
26/03:00pm 24.0 19.6 4.9 29 9.5 NW 17 24 9 13 1019.2 1019.1 0.0
26/02:30pm 24.0 19.8 3.9 27 9.9 NNW 15 22 8 12 1019.2 - 0.0
26/02:00pm 24.8 20.6 4.0 26 10.3 WNW 15 22 8 12 1019.5 1019.4 0.0
26/01:30pm 24.3 20.2 4.1 27 10.0 WNW 15 24 8 13 1019.9 - 0.0
26/01:00pm 25.0 21.0 3.0 24 10.7 NNW 13 30 7 16 1020.2 1020.1 0.0
26/12:30pm 25.4 21.8 -4.0 14 12.6 NNE 6 17 3 9 1020.7 - 0.0
26/12:00pm 24.9 20.9 -2.6 16 12.0 E 9 19 5 10 1021.2 1021.1 0.0
26/11:30am 24.0 20.3 -2.5 17 11.5 E 7 11 4 6 1021.6 - 0.0
26/11:00am 23.6 19.6 -2.1 18 11.2 ESE 9 22 5 12 1022.0 1021.9 0.0
26/10:30am 22.8 17.9 -0.6 21 10.5 E 15 22 8 12 1022.4 - 0.0
26/10:00am 22.1 17.3 0.0 23 9.9 E 15 24 8 13 1022.6 1022.5 0.0
26/09:30am 20.7 16.3 0.5 26 9.1 E 13 17 7 9 1022.7 - 0.0
26/09:00am 18.4 14.5 1.0 31 7.7 ESE 11 15 6 8 1022.5 1022.4 0.0
26/08:30am 16.6 12.8 1.5 36 6.7 SE 11 15 6 8 1022.1 - 0.0
26/08:00am 13.2 10.3 2.7 49 4.6 SSE 7 9 4 5 1021.7 1021.6 0.0
26/07:30am 8.9 6.2 3.5 69 2.3 S 7 7 4 4 1021.4 - 0.0
26/07:00am 7.5 4.3 2.8 72 2.0 S 9 11 5 6 1021.1 1021.0 0.0
26/06:30am 6.9 3.6 2.4 73 1.9 S 9 11 5 6 1020.9 - 0.0
26/06:00am 7.0 4.0 2.3 72 1.9 S 7 7 4 4 1020.4 1020.3 0.0
26/05:30am 7.0 3.7 2.3 72 1.9 S 9 9 5 5 1020.1 - 0.0
26/05:00am 7.4 4.5 2.5 71 2.0 S 7 9 4 5 1020.0 1019.9 0.0
26/04:30am 7.7 4.4 2.6 70 2.1 S 9 11 5 6 1019.8 - 0.0
26/04:00am 8.2 5.4 2.9 69 2.2 SSE 7 9 4 5 1019.7 1019.6 0.0
26/03:30am 8.4 5.5 2.8 68 2.4 SSE 7 7 4 4 1019.9 - 0.0
26/03:00am 9.0 5.8 3.0 66 2.6 SSE 9 11 5 6 1019.9 1019.8 0.0
26/02:30am 9.3 5.7 3.1 65 2.7 SSE 11 11 6 6 1020.0 - 0.0
26/02:00am 9.4 5.8 3.2 65 2.7 SSE 11 13 6 7 1020.0 1019.9 0.0
26/01:30am 9.4 5.5 3.2 65 2.7 SSE 13 13 7 7 1020.1 - 0.0
26/01:00am 9.4 6.1 2.5 62 2.9 SSE 9 11 5 6 1020.3 1020.2 0.0
26/12:30am 9.7 6.8 2.8 62 3.0 SSE 7 7 4 4 1020.4 - 0.0
26/12:00am 10.1 6.9 2.9 61 3.1 SSE 9 11 5 6 1020.4 1020.3 0.0
 
Date/Time
WST
Temp
°C
App
Temp
°C
Dew
Point
Rel
Hum
%
Delta-T
°C
Wind Press
QNH
hPa
Press
MSL
hPa
Rain
since 9 am
mm
Dir
 
Spd
km/h
Gust
km/h
Spd
kts
Gust
kts
25/11:30pm 10.8 8.2 3.1 59 3.3 ESE 6 7 3 4 1020.6 - 0.0
25/11:00pm 10.8 7.6 3.1 59 3.3 ESE 9 9 5 5 1020.6 1020.5 0.0
25/10:30pm 11.1 8.3 3.4 59 3.4 ESE 7 9 4 5 1020.8 - 0.0
25/10:00pm 12.3 10.3 4.5 59 3.5 ESE 4 7 2 4 1020.9 1020.8 0.0
25/09:30pm 13.1 10.6 4.8 57 3.8 E 7 9 4 5 1020.6 - 0.0
25/09:00pm 13.8 11.0 5.2 56 4.0 E 9 9 5 5 1020.5 1020.4 0.0
25/08:30pm 14.2 11.4 5.0 54 4.3 NE 9 9 5 5 1020.4 - 0.0

Other Formats:

Comma delimited format used in spreadsheet applications
http://www.bom.gov.au/fwo/IDW60801/IDW60801.94306.axf

JavaScript Object Notation format (JSON) in row-major order
http://www.bom.gov.au/fwo/IDW60801/IDW60801.94306.json